Station: EBSP - 15/12/2018 00:51Z (il y a 21 minutes)
EBSP 150050Z AUTO 20004KT 160V240 9999 // OVC020/// M03/M08 Q1023
Vent du 200º - 4 kt (vent de direction variable de 160º à 240º)
Visibilité > 10 km
Ciel couvert à 2000 pieds
Température: -03ºC - Point de rosée: -08ºC - QNH: 1023 hPa